createdAt,value
2022-08-25T00:01:56.423Z,19.90
2022-08-25T00:04:23.855Z,20.00
2022-08-25T00:06:52.719Z,20.00
2022-08-25T00:09:22.533Z,19.90
2022-08-25T00:11:49.902Z,19.90
2022-08-25T00:14:26.383Z,19.90
2022-08-25T00:16:53.355Z,19.80
2022-08-25T00:19:26.468Z,19.70
2022-08-25T00:21:53.651Z,19.60
2022-08-25T00:24:21.247Z,19.50
2022-08-25T00:26:51.555Z,19.30
2022-08-25T00:29:19.338Z,19.20
2022-08-25T00:31:46.551Z,19.20
2022-08-25T00:34:22.572Z,19.00
2022-08-25T00:36:51.589Z,18.90
2022-08-25T00:39:21.008Z,18.80
2022-08-25T00:41:49.740Z,18.70
2022-08-25T00:44:18.327Z,18.60
2022-08-25T00:46:53.333Z,18.50
2022-08-25T00:59:30.041Z,18.30
2022-08-25T01:01:58.823Z,18.20
2022-08-25T01:04:25.636Z,18.20
2022-08-25T01:06:52.758Z,18.20
2022-08-25T01:09:20.114Z,18.10
2022-08-25T01:11:47.723Z,18.10
2022-08-25T01:14:18.867Z,18.10
2022-08-25T01:16:46.269Z,18.10
2022-08-25T01:19:17.575Z,18.10
2022-08-25T01:21:46.947Z,18.10
2022-08-25T01:24:24.344Z,18.10
2022-08-25T01:26:51.034Z,18.00
2022-08-25T01:29:20.872Z,17.90
2022-08-25T01:31:55.847Z,17.90
2022-08-25T01:34:23.143Z,17.80
2022-08-25T01:36:50.495Z,17.80
2022-08-25T01:39:17.760Z,17.70
2022-08-25T01:42:02.413Z,17.70
2022-08-25T01:44:29.258Z,17.70
2022-08-25T01:46:56.159Z,17.60
2022-08-25T01:49:22.798Z,17.60
2022-08-25T01:51:57.569Z,17.60
2022-08-25T01:54:24.513Z,17.60
2022-08-25T01:56:51.119Z,17.60
2022-08-25T01:59:24.134Z,17.60
2022-08-25T02:01:51.759Z,17.50
2022-08-25T02:04:26.892Z,17.50
2022-08-25T02:06:53.535Z,17.50
2022-08-25T02:09:20.098Z,17.50
2022-08-25T02:11:47.831Z,17.50
2022-08-25T02:14:15.666Z,17.50
2022-08-25T02:16:45.152Z,17.40
2022-08-25T02:19:12.371Z,17.30
2022-08-25T02:21:39.669Z,17.30
2022-08-25T02:24:06.974Z,17.30
2022-08-25T02:26:33.922Z,17.20
2022-08-25T02:29:01.186Z,17.20
2022-08-25T02:31:28.948Z,17.20
2022-08-25T02:33:56.890Z,17.10
2022-08-25T02:36:23.856Z,17.00
2022-08-25T02:38:50.854Z,16.90
2022-08-25T02:41:20.928Z,16.80
2022-08-25T02:43:48.670Z,16.70
2022-08-25T02:46:19.793Z,16.70
2022-08-25T02:48:47.321Z,16.70
2022-08-25T02:51:14.925Z,16.60
2022-08-25T02:53:42.895Z,16.60
2022-08-25T02:56:11.710Z,16.50
2022-08-25T02:58:39.345Z,16.50
2022-08-25T03:01:07.514Z,16.50
2022-08-25T03:03:38.782Z,16.40
2022-08-25T03:06:08.080Z,16.40
2022-08-25T03:08:35.788Z,16.40
2022-08-25T03:11:02.727Z,16.30
2022-08-25T03:13:29.322Z,16.30
2022-08-25T03:15:55.901Z,16.30
2022-08-25T03:18:23.139Z,16.20
2022-08-25T03:20:51.246Z,16.20
2022-08-25T03:23:18.105Z,16.20
2022-08-25T03:26:03.663Z,16.20
2022-08-25T03:28:32.138Z,16.20
2022-08-25T03:31:00.343Z,16.20
2022-08-25T03:33:28.367Z,16.20
2022-08-25T03:35:55.472Z,16.20
2022-08-25T03:38:25.284Z,16.30
2022-08-25T03:40:52.765Z,16.30
2022-08-25T03:43:20.013Z,16.40
2022-08-25T03:45:47.812Z,16.40
2022-08-25T03:48:16.072Z,16.40
2022-08-25T03:50:50.521Z,16.30
2022-08-25T03:53:19.338Z,16.30
2022-08-25T03:55:46.178Z,16.30
2022-08-25T03:58:12.893Z,16.40
2022-08-25T04:00:39.557Z,16.30
2022-08-25T04:03:06.403Z,16.20
2022-08-25T04:05:33.485Z,16.20
2022-08-25T04:08:03.564Z,16.20
2022-08-25T04:10:31.803Z,16.10
2022-08-25T04:12:58.557Z,16.10
2022-08-25T04:15:30.126Z,16.00
2022-08-25T04:17:58.790Z,16.00
2022-08-25T04:20:25.749Z,15.90
2022-08-25T04:22:52.322Z,15.90
2022-08-25T04:25:18.921Z,15.90
2022-08-25T04:27:45.518Z,15.90
2022-08-25T04:30:12.868Z,16.00
2022-08-25T04:32:39.479Z,15.90
2022-08-25T04:35:07.459Z,16.00
2022-08-25T04:37:34.474Z,15.90
2022-08-25T04:40:01.620Z,15.90
2022-08-25T04:42:28.431Z,15.90
2022-08-25T04:44:55.035Z,16.00
2022-08-25T04:47:22.121Z,16.00
2022-08-25T04:49:48.946Z,16.00
2022-08-25T04:52:15.793Z,16.00
2022-08-25T04:54:43.910Z,16.10
2022-08-25T04:57:10.896Z,16.10
2022-08-25T04:59:37.835Z,16.10
2022-08-25T05:02:06.485Z,16.20
2022-08-25T05:04:35.784Z,16.20
2022-08-25T05:07:03.434Z,16.30
2022-08-25T05:09:32.635Z,16.30
2022-08-25T05:12:03.632Z,16.30
2022-08-25T05:14:31.918Z,16.40
2022-08-25T05:16:58.708Z,16.40
2022-08-25T05:19:26.414Z,16.40
2022-08-25T05:21:53.825Z,16.50
2022-08-25T05:24:21.487Z,16.50
2022-08-25T05:26:49.243Z,16.60
2022-08-25T05:29:16.383Z,16.60
2022-08-25T05:31:48.264Z,16.70
2022-08-25T05:34:18.311Z,16.70
2022-08-25T05:36:44.968Z,16.70
2022-08-25T05:39:12.759Z,16.70
2022-08-25T05:41:39.347Z,16.70
2022-08-25T05:44:05.976Z,16.70
2022-08-25T05:46:32.984Z,16.70
2022-08-25T05:48:59.600Z,16.70
2022-08-25T05:51:26.571Z,16.70
2022-08-25T05:53:53.541Z,16.70
2022-08-25T05:56:21.211Z,16.90
2022-08-25T05:58:48.524Z,17.00
2022-08-25T06:01:46.431Z,17.10
2022-08-25T06:04:15.451Z,17.30
2022-08-25T06:06:42.245Z,17.50
2022-08-25T06:09:09.650Z,17.60
2022-08-25T06:11:37.902Z,17.80
2022-08-25T06:14:04.721Z,17.90
2022-08-25T06:16:31.658Z,18.10
2022-08-25T06:18:58.375Z,18.20
2022-08-25T06:21:25.375Z,18.30
2022-08-25T06:23:52.764Z,18.50
2022-08-25T06:26:21.045Z,18.60
2022-08-25T06:28:49.675Z,18.70
2022-08-25T06:31:17.061Z,18.80
2022-08-25T06:33:44.234Z,19.00
2022-08-25T06:36:10.928Z,19.10
2022-08-25T06:38:37.592Z,19.40
2022-08-25T06:41:05.747Z,19.50
2022-08-25T06:43:33.934Z,19.70
2022-08-25T06:46:14.578Z,19.80
2022-08-25T06:48:41.888Z,19.90
2022-08-25T06:51:13.848Z,20.10
2022-08-25T06:53:41.593Z,20.20
2022-08-25T06:56:08.817Z,20.30
2022-08-25T06:58:35.806Z,20.50
2022-08-25T07:01:12.335Z,20.60
2022-08-25T07:03:42.922Z,20.80
2022-08-25T07:06:09.973Z,20.80
2022-08-25T07:08:37.127Z,20.90
2022-08-25T07:11:07.968Z,21.00
2022-08-25T07:13:43.401Z,21.20
2022-08-25T07:16:11.367Z,21.40
2022-08-25T07:18:38.344Z,21.40
2022-08-25T07:21:05.347Z,21.50
2022-08-25T07:23:36.181Z,21.70
2022-08-25T07:29:09.697Z,21.90
2022-08-25T07:31:36.416Z,22.10
2022-08-25T07:34:22.543Z,22.20
2022-08-25T07:36:49.571Z,22.40
2022-08-25T07:39:17.485Z,22.40
2022-08-25T07:41:51.901Z,22.20
2022-08-25T07:44:20.711Z,22.40
2022-08-25T07:46:48.258Z,22.60
2022-08-25T07:59:34.798Z,23.30
2022-08-25T08:02:19.083Z,23.30
2022-08-25T08:04:49.533Z,23.50
2022-08-25T08:07:23.147Z,23.50
2022-08-25T08:09:56.426Z,23.60
2022-08-25T08:12:37.545Z,23.20
2022-08-25T08:15:05.139Z,23.50
2022-08-25T08:17:37.542Z,23.50
2022-08-25T08:20:10.591Z,23.70
2022-08-25T08:22:41.787Z,23.80
2022-08-25T08:35:27.548Z,24.40
2022-08-25T08:37:54.170Z,24.40
2022-08-25T08:40:21.087Z,24.30
2022-08-25T08:43:18.133Z,24.10
2022-08-25T08:45:51.872Z,24.20
2022-08-25T08:48:49.586Z,24.20
2022-08-25T08:51:23.097Z,24.50
2022-08-25T08:54:15.196Z,24.40
2022-08-25T08:56:48.089Z,24.40
2022-08-25T08:59:22.229Z,24.60
2022-08-25T09:02:00.957Z,24.80
2022-08-25T09:04:51.467Z,25.00
2022-08-25T09:07:29.230Z,25.20
2022-08-25T09:09:59.166Z,25.20
2022-08-25T09:12:41.156Z,25.30
2022-08-25T09:15:20.887Z,25.40
2022-08-25T09:18:12.964Z,25.50
2022-08-25T09:20:49.851Z,25.40
2022-08-25T09:23:52.117Z,25.00
2022-08-25T09:26:28.373Z,25.40
2022-08-25T09:29:06.168Z,25.70
2022-08-25T09:31:38.896Z,25.90
2022-08-25T09:50:05.281Z,26.30
2022-08-25T09:52:44.254Z,26.40
2022-08-25T09:55:14.698Z,26.20
2022-08-25T09:57:47.004Z,26.30
2022-08-25T10:00:19.744Z,26.30
2022-08-25T10:03:05.928Z,26.30
2022-08-25T10:05:35.746Z,26.30
2022-08-25T10:08:14.544Z,26.50
2022-08-25T10:10:54.866Z,26.70
2022-08-25T10:13:32.291Z,26.40
2022-08-25T10:16:13.768Z,26.60
2022-08-25T10:19:32.228Z,26.80
2022-08-25T10:22:32.956Z,26.40
2022-08-25T10:25:00.380Z,26.20
2022-08-25T10:27:57.676Z,26.50
2022-08-25T10:30:35.520Z,27.00
2022-08-25T10:33:27.478Z,27.10
2022-08-25T10:36:20.491Z,26.90
2022-08-25T10:38:55.311Z,27.10
2022-08-25T10:41:40.019Z,27.40
2022-08-25T10:44:48.654Z,27.80
2022-08-25T10:47:35.607Z,28.00
2022-08-25T10:50:23.615Z,27.90
2022-08-25T10:53:13.616Z,28.00
2022-08-25T10:55:55.293Z,28.00
2022-08-25T10:58:30.919Z,28.10
2022-08-25T11:01:36.702Z,28.20
2022-08-25T11:04:33.513Z,28.40
2022-08-25T11:07:11.968Z,27.80
2022-08-25T11:09:42.923Z,27.30
2022-08-25T11:12:18.330Z,27.10
2022-08-25T11:14:59.902Z,27.20
2022-08-25T11:43:58.405Z,29.80
2022-08-25T11:46:46.651Z,30.00
2022-08-25T11:49:37.384Z,29.60
2022-08-25T11:52:30.593Z,29.30
2022-08-25T11:55:23.149Z,29.20
2022-08-25T11:57:53.722Z,29.80
2022-08-25T12:00:42.960Z,30.20
2022-08-25T12:03:41.851Z,30.50
2022-08-25T12:06:23.418Z,30.70
2022-08-25T12:09:05.481Z,30.40
2022-08-25T12:11:38.057Z,30.50
2022-08-25T12:14:28.169Z,30.80
2022-08-25T12:16:55.169Z,30.40
2022-08-25T12:19:35.998Z,30.50
2022-08-25T12:22:03.285Z,30.60
2022-08-25T12:24:47.743Z,30.90
2022-08-25T12:27:20.977Z,31.00
2022-08-25T12:29:51.163Z,31.30
2022-08-25T12:32:32.743Z,31.00
2022-08-25T12:35:25.716Z,30.20
2022-08-25T12:38:09.311Z,29.00
2022-08-25T12:40:57.656Z,28.60
2022-08-25T12:43:26.800Z,28.40
2022-08-25T12:46:14.898Z,29.00
2022-08-25T12:48:58.738Z,29.20
2022-08-25T12:51:33.185Z,29.00
2022-08-25T12:54:30.487Z,28.60
2022-08-25T12:57:01.654Z,28.90
2022-08-25T13:10:42.663Z,30.60
2022-08-25T13:13:24.228Z,30.60
2022-08-25T13:16:07.963Z,30.30
2022-08-25T13:18:36.731Z,29.70
2022-08-25T13:21:13.535Z,29.70
2022-08-25T13:23:42.636Z,30.20
2022-08-25T13:26:15.169Z,30.60
2022-08-25T13:28:50.396Z,30.20
2022-08-25T13:31:22.417Z,30.00
2022-08-25T13:34:05.306Z,29.60
2022-08-25T13:37:10.855Z,29.70
2022-08-25T13:39:55.811Z,29.60
2022-08-25T13:42:24.460Z,29.60
2022-08-25T13:44:55.839Z,29.30
2022-08-25T13:47:55.908Z,29.30
2022-08-25T13:50:26.385Z,29.70
2022-08-25T13:53:00.956Z,30.60
2022-08-25T13:55:38.204Z,30.70
2022-08-25T13:58:38.683Z,29.80
2022-08-25T14:01:48.822Z,30.00
2022-08-25T14:04:31.876Z,29.70
2022-08-25T14:07:20.372Z,29.20
2022-08-25T14:09:48.586Z,29.10
2022-08-25T14:12:37.398Z,29.40
2022-08-25T14:15:06.645Z,29.00
2022-08-25T14:17:40.262Z,28.80
2022-08-25T14:20:17.716Z,28.60
2022-08-25T14:22:44.329Z,28.80
2022-08-25T14:25:11.239Z,29.50
2022-08-25T14:28:03.621Z,29.90
2022-08-25T14:30:29.988Z,30.20
2022-08-25T14:32:58.509Z,30.70
2022-08-25T14:35:25.167Z,31.10
2022-08-25T14:37:52.032Z,31.30
2022-08-25T14:40:19.946Z,30.90
2022-08-25T14:42:47.491Z,31.00
2022-08-25T14:45:18.408Z,31.00
2022-08-25T14:47:49.827Z,30.80
2022-08-25T14:50:20.874Z,31.10
2022-08-25T14:52:48.227Z,31.50
2022-08-25T14:55:24.078Z,31.10
2022-08-25T14:57:59.213Z,31.30
2022-08-25T15:00:26.386Z,31.00
2022-08-25T15:02:54.913Z,30.60
2022-08-25T15:05:25.658Z,30.60
2022-08-25T15:08:12.277Z,30.70
2022-08-25T15:10:39.859Z,30.60
2022-08-25T15:13:07.145Z,30.40
2022-08-25T15:15:39.210Z,30.80
2022-08-25T15:18:20.035Z,30.70
2022-08-25T15:20:46.994Z,31.00
2022-08-25T15:23:20.325Z,30.90
2022-08-25T15:25:49.558Z,31.30
2022-08-25T15:28:22.147Z,31.40
2022-08-25T15:30:49.856Z,30.80
2022-08-25T15:33:17.282Z,30.70
2022-08-25T15:35:44.118Z,30.90
2022-08-25T15:38:13.449Z,30.60
2022-08-25T15:40:40.324Z,30.20
2022-08-25T15:43:07.444Z,30.30
2022-08-25T15:45:35.922Z,29.80
2022-08-25T15:48:03.358Z,30.20
2022-08-25T15:50:29.966Z,30.30
2022-08-25T15:52:56.690Z,30.60
2022-08-25T15:55:23.464Z,30.40
2022-08-25T15:57:50.418Z,30.60
2022-08-25T16:00:18.088Z,30.30
2022-08-25T16:02:45.626Z,29.60
2022-08-25T16:05:13.700Z,29.20
2022-08-25T16:07:42.832Z,28.90
2022-08-25T16:10:10.342Z,28.70
2022-08-25T16:12:39.953Z,28.60
2022-08-25T16:15:09.844Z,28.50
2022-08-25T16:17:40.707Z,28.50
2022-08-25T16:20:13.755Z,29.10
2022-08-25T16:22:40.890Z,30.50
2022-08-25T16:25:07.966Z,31.30
2022-08-25T16:27:38.625Z,32.50
2022-08-25T16:30:07.168Z,33.00
2022-08-25T16:37:29.776Z,31.80
2022-08-25T16:39:57.264Z,31.00
2022-08-25T16:42:24.247Z,30.30
2022-08-25T16:44:53.957Z,29.60
2022-08-25T16:47:25.148Z,29.20
2022-08-25T16:49:54.028Z,29.00
2022-08-25T16:52:40.647Z,28.80
2022-08-25T16:55:14.671Z,28.60
2022-08-25T16:57:45.293Z,28.50
2022-08-25T17:00:18.445Z,28.40
2022-08-25T17:02:45.801Z,28.20
2022-08-25T17:05:12.495Z,28.10
2022-08-25T17:07:39.361Z,28.00
2022-08-25T17:10:07.396Z,28.00
2022-08-25T17:12:39.493Z,27.90
2022-08-25T17:15:07.619Z,27.80
2022-08-25T17:17:36.241Z,27.70
2022-08-25T17:20:04.688Z,27.60
2022-08-25T17:22:31.747Z,27.50
2022-08-25T17:25:00.926Z,27.50
2022-08-25T17:27:28.314Z,27.40
2022-08-25T17:29:55.919Z,27.30
2022-08-25T17:32:28.902Z,27.20
2022-08-25T17:34:57.351Z,27.20
2022-08-25T17:37:24.426Z,27.10
2022-08-25T17:39:51.734Z,27.00
2022-08-25T17:42:30.387Z,27.00
2022-08-25T17:44:57.982Z,26.90
2022-08-25T17:47:24.605Z,26.70
2022-08-25T17:49:51.273Z,26.60
2022-08-25T17:52:20.665Z,26.50
2022-08-25T17:54:49.244Z,26.40
2022-08-25T17:59:43.086Z,26.10
2022-08-25T18:02:09.827Z,25.90
2022-08-25T18:04:38.629Z,25.80
2022-08-25T18:07:06.852Z,25.60
2022-08-25T18:09:33.559Z,25.50
2022-08-25T18:12:00.160Z,25.40
2022-08-25T18:14:26.788Z,25.30
2022-08-25T18:16:54.255Z,25.20
2022-08-25T18:19:21.188Z,25.10
2022-08-25T18:21:48.261Z,25.10
2022-08-25T18:24:14.868Z,25.00
2022-08-25T18:26:42.137Z,25.10
2022-08-25T18:29:12.764Z,24.90
2022-08-25T18:31:41.757Z,24.70
2022-08-25T18:34:11.033Z,24.60
2022-08-25T18:36:38.768Z,24.60
2022-08-25T18:39:24.868Z,24.70
2022-08-25T18:41:51.943Z,24.60
2022-08-25T18:44:18.572Z,24.40
2022-08-25T18:46:46.364Z,24.20
2022-08-25T18:49:15.631Z,23.90
2022-08-25T18:51:44.549Z,23.80
2022-08-25T18:54:22.413Z,23.70
2022-08-25T18:56:51.387Z,23.60
2022-08-25T18:59:19.064Z,23.50
2022-08-25T19:01:45.999Z,23.40
2022-08-25T19:04:14.752Z,23.30
2022-08-25T19:06:43.766Z,23.20
2022-08-25T19:09:10.853Z,23.10
2022-08-25T19:11:38.230Z,23.00
2022-08-25T19:14:08.077Z,23.00
2022-08-25T19:16:40.908Z,22.90
2022-08-25T19:19:11.463Z,22.90
2022-08-25T19:21:39.332Z,22.90
2022-08-25T19:24:07.739Z,22.90
2022-08-25T19:26:36.451Z,22.80
2022-08-25T19:29:08.926Z,22.60
2022-08-25T19:31:37.297Z,22.50
2022-08-25T19:34:07.296Z,22.40
2022-08-25T19:36:34.140Z,22.30
2022-08-25T19:39:01.386Z,22.20
2022-08-25T19:41:31.060Z,22.10
2022-08-25T19:43:58.273Z,22.10
2022-08-25T19:46:35.219Z,22.00
2022-08-25T19:49:08.850Z,21.90
2022-08-25T19:51:44.104Z,22.00
2022-08-25T19:54:13.415Z,21.90
2022-08-25T19:56:43.618Z,21.90
2022-08-25T19:59:11.110Z,21.80
2022-08-25T20:01:37.735Z,21.80
2022-08-25T20:04:07.011Z,21.70
2022-08-25T20:06:33.599Z,21.80
2022-08-25T20:09:00.715Z,21.80
2022-08-25T20:11:28.918Z,21.70
2022-08-25T20:13:58.200Z,21.80
2022-08-25T20:16:28.095Z,21.70
2022-08-25T20:18:54.857Z,21.70
2022-08-25T20:24:07.657Z,21.60
2022-08-25T20:26:36.314Z,21.50
2022-08-25T20:29:05.084Z,21.40
2022-08-25T20:31:32.281Z,21.30
2022-08-25T20:34:00.454Z,21.20
2022-08-25T20:36:29.761Z,21.20
2022-08-25T20:38:56.357Z,21.20
2022-08-25T20:41:25.905Z,21.10
2022-08-25T20:43:52.576Z,21.00
2022-08-25T20:46:19.375Z,21.00
2022-08-25T20:48:46.223Z,20.90
2022-08-25T20:51:13.216Z,20.90
2022-08-25T20:53:42.475Z,20.80
2022-08-25T20:56:15.447Z,20.90
2022-08-25T20:58:42.886Z,20.80
2022-08-25T21:01:22.922Z,20.80
2022-08-25T21:03:50.663Z,20.70
2022-08-25T21:06:17.694Z,20.60
2022-08-25T21:08:46.627Z,20.60
2022-08-25T21:11:15.398Z,20.60
2022-08-25T21:13:42.224Z,20.60
2022-08-25T21:16:09.201Z,20.50
2022-08-25T21:18:36.560Z,20.50
2022-08-25T21:21:12.174Z,20.50
2022-08-25T21:23:38.980Z,20.50
2022-08-25T21:26:06.579Z,20.40
2022-08-25T21:28:34.731Z,20.50
2022-08-25T21:31:02.079Z,20.50
2022-08-25T21:33:28.799Z,20.50
2022-08-25T21:35:55.865Z,20.40
2022-08-25T21:38:22.570Z,20.30
2022-08-25T21:40:49.709Z,20.20
2022-08-25T21:43:18.701Z,20.20
2022-08-25T21:45:47.081Z,20.20
2022-08-25T21:48:14.056Z,20.20
2022-08-25T21:50:41.035Z,20.10
2022-08-25T21:53:09.756Z,20.10
2022-08-25T21:55:41.799Z,20.10
2022-08-25T21:58:08.729Z,20.20
2022-08-25T22:00:36.689Z,20.20
2022-08-25T22:03:03.362Z,20.10
2022-08-25T22:05:29.984Z,20.10
2022-08-25T22:07:56.630Z,20.00
2022-08-25T22:10:23.413Z,20.00
2022-08-25T22:12:50.311Z,19.90
2022-08-25T22:15:18.272Z,19.90
2022-08-25T22:17:45.569Z,19.90
2022-08-25T22:20:17.309Z,19.90
2022-08-25T22:22:43.961Z,20.00
2022-08-25T22:25:12.931Z,20.00
2022-08-25T22:27:39.573Z,19.90
2022-08-25T22:30:06.936Z,19.90
2022-08-25T22:32:33.530Z,19.80
2022-08-25T22:35:00.691Z,19.80
2022-08-25T22:37:27.303Z,19.70
2022-08-25T22:39:57.185Z,19.60
2022-08-25T22:42:25.691Z,19.60
2022-08-25T22:44:53.773Z,19.50
2022-08-25T22:47:20.672Z,19.60
2022-08-25T22:49:47.482Z,19.50
2022-08-25T22:52:14.847Z,19.50
2022-08-25T22:54:41.952Z,19.40
2022-08-25T22:57:08.998Z,19.40
2022-08-25T22:59:37.028Z,19.30
2022-08-25T23:02:05.316Z,19.30
2022-08-25T23:04:33.460Z,19.30
2022-08-25T23:07:00.066Z,19.30
2022-08-25T23:09:26.696Z,19.20
2022-08-25T23:11:53.252Z,19.20
2022-08-25T23:14:19.999Z,19.20
2022-08-25T23:16:48.442Z,19.20
2022-08-25T23:19:17.511Z,19.20
2022-08-25T23:22:03.901Z,19.10
2022-08-25T23:24:31.519Z,19.10
2022-08-25T23:27:00.618Z,19.00
2022-08-25T23:29:28.158Z,19.00
2022-08-25T23:31:55.146Z,19.00
2022-08-25T23:34:22.174Z,19.00
2022-08-25T23:36:48.989Z,19.00
2022-08-25T23:39:15.645Z,19.10
2022-08-25T23:41:42.340Z,19.20
2022-08-25T23:44:09.325Z,19.20
2022-08-25T23:46:38.932Z,19.20
2022-08-25T23:49:08.444Z,19.20
2022-08-25T23:51:38.117Z,19.30
2022-08-25T23:54:09.549Z,19.20
2022-08-25T23:56:44.434Z,19.20
2022-08-25T23:59:12.976Z,19.20
